Time;durP1;ratioP1;P1;durP2;ratioP2;P2;SDS_P1;SDS_P2;PMS_P1;PMS_P2;Temp;Humidity;BMP_temperature;BMP_pressure;BME280_temperature;BME280_humidity;BME280_pressure;Samples;Min_cycle;Max_cycle;Signal;HPM_P1;HPM_P2
2022/02/08 00:00:40;;;;;;;11.23;4.17;;;3.20;99.90;;;3.62;100.00;-19850.09;5091330;28;20305;-73
2022/02/08 00:03:10;;;;;;;8.27;3.70;;;3.10;99.90;;;3.74;100.00;-19854.19;5091424;28;20213;-73
2022/02/08 00:05:38;;;;;;;14.33;4.90;;;3.00;99.90;;;3.72;100.00;-19853.50;5090690;28;20289;-72
2022/02/08 00:08:06;;;;;;;5.93;3.60;;;3.00;99.90;;;3.68;100.00;-19852.31;5091124;28;20262;-72
2022/02/08 00:10:35;;;;;;;8.17;3.40;;;3.00;99.90;;;3.44;100.00;-19843.94;5091003;28;20224;-73
2022/02/08 00:13:03;;;;;;;10.10;4.00;;;2.90;99.90;;;3.46;100.00;-19844.63;5090417;28;20241;-73
2022/02/08 00:15:31;;;;;;;10.67;5.07;;;2.90;99.90;;;3.48;100.00;-19845.31;5090919;28;20222;-73
2022/02/08 00:17:59;;;;;;;8.77;4.10;;;2.80;99.90;;;3.54;100.00;-19847.53;5094901;28;20262;-73
2022/02/08 00:20:29;;;;;;;10.60;5.03;;;2.80;99.90;;;3.51;100.00;-19846.31;5094638;28;20319;-72
2022/02/08 00:22:57;;;;;;;12.80;4.60;;;2.80;99.90;;;3.30;100.00;-19839.31;5095266;28;20884;-73
2022/02/08 00:25:26;;;;;;;10.57;5.13;;;2.70;99.90;;;3.40;100.00;-19842.72;5095059;28;20235;-73
2022/02/08 00:27:54;;;;;;;10.30;4.80;;;2.70;99.90;;;3.38;100.00;-19842.06;5095272;28;20284;-73
2022/02/08 00:30:22;;;;;;;12.33;5.27;;;2.70;99.90;;;3.29;100.00;-19838.81;5094890;28;20249;-72
2022/02/08 00:32:50;;;;;;;11.10;4.47;;;2.70;99.90;;;3.45;100.00;-19844.28;5095872;28;20248;-72
2022/02/08 00:35:19;;;;;;;10.47;4.20;;;2.70;99.90;;;3.41;100.00;-19842.91;5094728;28;20546;-73
2022/02/08 00:37:48;;;;;;;12.73;4.53;;;2.70;99.90;;;3.40;100.00;-19842.56;5095105;28;20277;-72
2022/02/08 00:40:18;;;;;;;8.83;5.23;;;2.70;99.90;;;3.22;100.00;-19836.59;5094655;28;20337;-73
2022/02/08 00:42:47;;;;;;;10.37;5.60;;;2.60;99.90;;;3.30;100.00;-19839.31;5095027;28;20249;-70
2022/02/08 00:45:26;;;;;;;9.93;6.13;;;2.70;99.90;;;3.43;100.00;-19843.59;5095535;28;20221;-72
2022/02/08 00:48:03;;;;;;;8.00;5.60;;;2.70;99.90;;;3.33;100.00;-19840.34;5094732;28;20679;-73
2022/02/08 00:50:32;;;;;;;12.23;6.60;;;2.70;99.90;;;3.25;100.00;-19837.44;5094346;28;20251;-73
2022/02/08 00:53:01;;;;;;;13.10;7.30;;;2.60;99.90;;;3.12;100.00;-19833.16;5094409;28;20262;-72
2022/02/08 00:55:29;;;;;;;7.70;5.63;;;2.60;99.90;;;3.31;100.00;-19839.50;5094269;28;20255;-74
2022/02/08 00:57:57;;;;;;;11.80;6.77;;;2.60;99.90;;;3.35;100.00;-19840.84;5094384;28;20308;-74
2022/02/08 01:00:26;;;;;;;12.60;6.47;;;2.70;99.90;;;3.28;100.00;-19838.47;5093926;28;20247;-73
2022/02/08 01:02:57;;;;;;;15.93;5.77;;;2.70;99.90;;;3.19;100.00;-19835.38;5094627;28;20243;-73
2022/02/08 01:05:27;;;;;;;12.07;5.80;;;2.60;99.90;;;3.30;100.00;-19839.16;5094099;28;20250;-73
2022/02/08 01:07:55;;;;;;;11.83;6.10;;;2.60;99.90;;;3.20;100.00;-19835.72;5094357;28;20244;-73
2022/02/08 01:10:29;;;;;;;8.50;5.90;;;2.60;99.90;;;3.10;100.00;-19832.31;5094086;28;20254;-71
2022/02/08 01:12:57;;;;;;;13.87;5.87;;;2.60;99.90;;;3.12;100.00;-19833.16;5094023;28;20282;-70
2022/02/08 01:15:25;;;;;;;11.27;5.80;;;2.50;99.90;;;3.14;100.00;-19833.69;5094396;28;20234;-72
2022/02/08 01:17:57;;;;;;;11.63;5.97;;;2.50;99.90;;;3.12;100.00;-19833.00;5094749;28;20285;-72
2022/02/08 01:20:31;;;;;;;14.27;6.03;;;2.40;99.90;;;3.20;100.00;-19835.72;5093951;28;20365;-73
2022/02/08 01:23:03;;;;;;;11.87;5.17;;;2.50;99.90;;;3.22;100.00;-19836.59;5093765;28;20251;-72
2022/02/08 01:25:39;;;;;;;8.47;5.50;;;2.50;99.90;;;3.09;100.00;-19831.97;5093714;28;20223;-72
2022/02/08 01:28:19;;;;;;;11.40;5.10;;;2.50;99.90;;;2.89;100.00;-19825.31;5093710;28;20343;-73
2022/02/08 01:30:58;;;;;;;10.40;5.13;;;2.40;99.90;;;3.03;100.00;-19830.09;5093398;28;20715;-72
2022/02/08 01:39:11;;;;;;;10.87;6.00;;;2.40;99.90;;;3.09;100.00;-19831.97;5042764;28;20264;-72
2022/02/08 01:41:58;;;;;;;8.30;5.10;;;2.40;99.90;;;2.97;100.00;-19827.88;5052961;28;20232;-72
2022/02/08 01:44:32;;;;;;;11.53;6.07;;;2.40;99.90;;;3.04;100.00;-19830.44;5053162;28;20255;-73
2022/02/08 01:47:16;;;;;;;11.10;6.20;;;2.40;99.90;;;2.85;100.00;-19823.94;5064640;28;20271;-73
2022/02/08 01:49:58;;;;;;;17.27;7.13;;;2.30;99.90;;;3.00;100.00;-19828.88;5059034;28;20278;-73
2022/02/08 01:52:27;;;;;;;9.73;6.83;;;2.30;99.90;;;2.95;100.00;-19827.19;5073490;28;20232;-73
2022/02/08 01:54:57;;;;;;;11.90;6.23;;;2.40;99.90;;;3.11;100.00;-19832.66;5076194;28;20246;-74
2022/02/08 01:57:26;;;;;;;9.90;6.13;;;2.40;99.90;;;3.01;100.00;-19829.41;5075400;28;20801;-71
2022/02/08 01:59:55;;;;;;;12.20;6.90;;;2.40;99.90;;;2.85;100.00;-19823.75;5109220;28;20253;-72
2022/02/08 02:02:23;;;;;;;13.10;7.00;;;2.30;99.90;;;2.95;100.00;-19827.19;5096459;28;20723;-71
2022/02/08 02:04:51;;;;;;;10.57;7.17;;;2.30;99.90;;;3.04;100.00;-19830.25;5092973;28;20810;-72
2022/02/08 02:07:19;;;;;;;9.97;7.33;;;2.30;99.90;;;2.78;100.00;-19821.53;5093199;28;20227;-72
2022/02/08 02:09:48;;;;;;;9.80;7.00;;;2.30;99.90;;;2.78;100.00;-19821.53;5093002;28;20707;-72
2022/02/08 02:12:16;;;;;;;13.60;6.97;;;2.30;99.90;;;2.84;100.00;-19823.59;5092999;28;20303;-73
2022/02/08 02:14:47;;;;;;;12.47;7.93;;;2.30;99.90;;;3.07;100.00;-19831.28;5092761;28;20235;-73
2022/02/08 02:17:16;;;;;;;13.20;6.90;;;2.40;99.90;;;3.37;100.00;-19841.53;5092697;28;20316;-71
2022/02/08 02:19:45;;;;;;;12.90;6.60;;;2.40;99.90;;;3.38;100.00;-19841.88;5081210;28;20678;-71
2022/02/08 02:22:14;;;;;;;18.13;7.87;;;2.50;99.90;;;3.46;100.00;-19844.63;5059508;28;20244;-72
2022/02/08 02:24:44;;;;;;;9.67;6.30;;;2.60;99.90;;;3.37;100.00;-19841.53;5069725;28;20304;-71
2022/02/08 02:27:12;;;;;;;10.70;6.23;;;2.70;99.90;;;3.53;100.00;-19847.00;5052623;28;20238;-72
2022/02/08 02:29:40;;;;;;;9.13;6.00;;;2.70;99.90;;;3.65;100.00;-19851.13;5052498;28;20221;-72
2022/02/08 02:32:10;;;;;;;8.93;6.70;;;2.90;99.90;;;3.90;100.00;-19859.66;5052563;28;20718;-72
2022/02/08 02:34:48;;;;;;;9.33;6.20;;;3.00;99.90;;;3.68;100.00;-19852.31;5052728;28;20240;-72
2022/02/08 02:37:17;;;;;;;11.40;6.53;;;3.00;99.90;;;3.77;100.00;-19855.03;5060896;28;20228;-73
2022/02/08 02:39:46;;;;;;;10.57;6.50;;;3.00;99.90;;;3.81;100.00;-19856.59;5071771;28;20255;-70
2022/02/08 02:42:18;;;;;;;11.17;6.40;;;3.00;99.90;;;3.88;100.00;-19858.97;5072837;28;20662;-71
2022/02/08 02:44:46;;;;;;;8.93;5.77;;;3.10;99.90;;;3.94;100.00;-19861.03;5072047;28;20265;-73
2022/02/08 02:47:14;;;;;;;11.30;5.97;;;3.10;99.90;;;3.93;100.00;-19860.69;5071547;28;20225;-71
2022/02/08 02:49:42;;;;;;;10.00;6.03;;;3.10;99.90;;;3.99;100.00;-19862.72;5071716;28;20283;-72
2022/02/08 02:52:10;;;;;;;10.87;5.97;;;3.20;99.90;;;4.17;100.00;-19868.88;5078176;28;20303;-73
2022/02/08 02:54:39;;;;;;;9.80;5.37;;;3.20;99.90;;;4.11;100.00;-19866.84;5094434;28;20204;-72
2022/02/08 02:57:10;;;;;;;9.10;6.07;;;3.30;99.90;;;3.98;100.00;-19862.22;5112810;28;20287;-70
2022/02/08 02:59:40;;;;;;;12.40;6.87;;;3.20;99.90;;;3.90;100.00;-19859.66;5093071;28;20748;-71
2022/02/08 03:02:27;;;;;;;11.90;6.10;;;3.20;99.90;;;4.03;100.00;-19863.94;5092035;28;20260;-71
2022/02/08 03:05:04;;;;;;;13.13;6.47;;;3.20;99.90;;;3.91;100.00;-19860.00;5091840;28;20255;-72
2022/02/08 03:18:39;;;;;;;10.27;5.60;;;3.30;99.90;;;4.18;100.00;-19869.22;5091386;28;20248;-69
2022/02/08 03:21:09;;;;;;;10.40;6.30;;;3.40;99.90;;;4.28;100.00;-19872.47;5092054;28;20197;-73
2022/02/08 03:23:39;;;;;;;14.00;6.60;;;3.40;99.90;;;4.25;100.00;-19871.44;5091229;28;20257;-66
2022/02/08 03:26:08;;;;;;;12.70;6.10;;;3.40;99.90;;;4.22;100.00;-19870.59;5091207;28;20224;-65
2022/02/08 03:28:38;;;;;;;11.33;6.27;;;3.50;99.90;;;4.39;100.00;-19876.41;5091097;28;20283;-65
2022/02/08 03:31:07;;;;;;;12.83;7.13;;;3.50;99.90;;;4.32;100.00;-19873.84;5091434;28;20546;-66
2022/02/08 03:33:35;;;;;;;9.67;5.80;;;3.50;99.90;;;4.28;100.00;-19872.66;5090446;28;20616;-66
2022/02/08 03:36:04;;;;;;;10.37;5.60;;;3.50;99.90;;;4.30;100.00;-19873.34;5091543;28;20201;-65
2022/02/08 03:38:36;;;;;;;10.67;5.87;;;3.50;99.90;;;4.29;100.00;-19873.00;5071123;28;20271;-65
2022/02/08 03:41:07;;;;;;;8.77;5.77;;;3.50;99.90;;;4.56;100.00;-19882.06;5070472;28;20248;-65
2022/02/08 03:43:38;;;;;;;11.10;5.77;;;3.60;99.90;;;4.43;100.00;-19877.78;5070065;28;20225;-66
2022/02/08 03:46:13;;;;;;;8.90;5.20;;;3.60;99.90;;;4.37;100.00;-19875.72;5070659;28;20241;-66
2022/02/08 03:48:43;;;;;;;13.57;5.73;;;3.60;99.90;;;4.37;100.00;-19875.72;5070313;28;20216;-65
2022/02/08 03:51:15;;;;;;;8.47;6.07;;;3.60;99.90;;;4.49;100.00;-19879.66;5057165;28;20199;-65
2022/02/08 03:53:45;;;;;;;13.73;6.10;;;3.70;99.90;;;4.56;100.00;-19882.06;5070321;28;20286;-65
2022/02/08 03:56:16;;;;;;;10.43;5.13;;;3.70;99.90;;;4.52;100.00;-19880.84;5070880;28;20226;-66
2022/02/08 03:58:44;;;;;;;8.93;5.50;;;3.70;99.90;;;4.65;100.00;-19885.28;5070041;28;20269;-66
2022/02/08 04:01:42;;;;;;;10.13;5.60;;;3.80;99.90;;;4.71;100.00;-19887.34;5070393;28;20726;-65
2022/02/08 04:04:28;;;;;;;9.40;5.30;;;3.80;99.90;;;4.78;100.00;-19889.56;5070651;28;20275;-64
2022/02/08 04:07:00;;;;;;;8.37;4.70;;;3.80;99.90;;;4.68;100.00;-19886.31;5070631;28;20251;-65
2022/02/08 04:09:28;;;;;;;9.83;4.87;;;3.90;99.90;;;4.83;100.00;-19891.28;5070611;28;20209;-65
2022/02/08 04:12:00;;;;;;;9.90;4.57;;;3.90;99.90;;;4.94;100.00;-19895.22;5071074;28;20214;-66
2022/02/08 04:14:37;;;;;;;8.13;4.93;;;4.00;99.90;;;4.92;100.00;-19894.34;5070134;28;20658;-66
2022/02/08 04:17:17;;;;;;;10.03;4.63;;;4.10;99.90;;;4.84;100.00;-19891.63;5070481;28;20231;-66
2022/02/08 04:20:02;;;;;;;8.90;4.43;;;4.00;99.90;;;4.94;100.00;-19895.03;5070226;28;20672;-66
2022/02/08 04:33:56;;;;;;;6.90;4.43;;;4.20;99.90;;;5.13;100.00;-19901.38;5070419;28;20602;-66
2022/02/08 04:36:45;;;;;;;8.70;4.87;;;4.20;99.90;;;5.12;100.00;-19901.19;5069875;28;20289;-66
2022/02/08 04:39:35;;;;;;;7.97;4.30;;;4.30;99.90;;;5.13;100.00;-19901.38;5070560;28;20210;-66
2022/02/08 04:42:09;;;;;;;7.13;3.67;;;4.30;99.90;;;5.17;100.00;-19902.91;5089946;28;20299;-66
2022/02/08 04:44:43;;;;;;;8.10;3.87;;;4.30;99.90;;;5.17;100.00;-19902.91;5089930;28;20262;-65
2022/02/08 04:47:17;;;;;;;11.70;4.30;;;4.30;99.90;;;5.15;100.00;-19902.22;5092786;28;20329;-66
2022/02/08 04:49:46;;;;;;;7.63;3.90;;;4.30;99.90;;;5.24;100.00;-19905.13;5104844;28;20248;-65
2022/02/08 04:52:16;;;;;;;12.20;4.37;;;4.40;99.90;;;5.23;100.00;-19904.94;5090126;28;20312;-66
2022/02/08 04:54:52;;;;;;;6.50;3.83;;;4.40;99.90;;;5.37;100.00;-19909.56;5089999;28;20701;-65
2022/02/08 04:57:26;;;;;;;6.17;3.83;;;4.40;99.90;;;5.33;100.00;-19908.19;5091105;28;20282;-65
2022/02/08 05:00:18;;;;;;;9.53;3.90;;;4.40;99.90;;;5.29;100.00;-19907.00;5069591;28;20591;-66
2022/02/08 05:41:50;;;;;;;8.80;3.70;;;4.50;99.90;;;5.46;100.00;-19912.66;5092790;28;20261;-65
2022/02/08 05:44:33;;;;;;;6.77;2.97;;;4.60;99.90;;;5.54;100.00;-19915.38;5102771;28;20320;-66
2022/02/08 05:47:02;;;;;;;7.00;2.83;;;4.60;99.90;;;5.49;100.00;-19913.84;5113531;28;20255;-66
2022/02/08 05:49:40;;;;;;;4.20;2.40;;;4.70;99.90;;;5.51;100.00;-19914.34;5109611;28;20280;-66
2022/02/08 05:54:53;;;;;;;6.30;2.70;;;4.70;99.90;;;5.52;100.00;-19914.69;5093111;28;20277;-65
2022/02/08 05:57:21;;;;;;;5.10;2.70;;;4.70;99.90;;;5.57;100.00;-19916.41;5093800;28;20241;-68
2022/02/08 05:59:51;;;;;;;7.17;2.60;;;4.70;99.90;;;5.60;100.00;-19917.59;5092685;28;20655;-66
2022/02/08 06:02:20;;;;;;;4.43;2.67;;;4.80;99.90;;;5.72;100.00;-19921.53;5092941;28;20223;-66
2022/02/08 06:04:49;;;;;;;8.67;2.53;;;4.80;99.90;;;5.58;100.00;-19916.91;5092919;28;20231;-67
2022/02/08 06:07:20;;;;;;;5.63;2.70;;;4.80;99.90;;;5.52;100.00;-19914.88;5092679;28;20266;-66
2022/02/08 06:09:52;;;;;;;5.77;2.43;;;4.80;99.90;;;5.65;100.00;-19919.16;5092853;28;20227;-66
2022/02/08 06:12:24;;;;;;;7.57;2.90;;;4.80;99.90;;;5.75;100.00;-19922.56;5093526;28;20274;-67
2022/02/08 06:14:57;;;;;;;7.20;2.40;;;4.90;99.90;;;5.69;100.00;-19920.50;5091901;28;20215;-66
2022/02/08 06:17:25;;;;;;;7.90;2.40;;;4.80;99.90;;;5.82;100.00;-19925.13;5092670;28;20228;-66
2022/02/08 06:19:55;;;;;;;7.70;2.80;;;4.80;99.90;;;6.02;100.00;-19931.78;5092581;28;20314;-65
2022/02/08 06:22:24;;;;;;;5.07;2.53;;;4.90;99.90;;;5.91;100.00;-19928.22;5092227;28;20235;-66
2022/02/08 06:24:53;;;;;;;7.03;2.27;;;4.90;99.90;;;5.96;100.00;-19929.75;5092557;28;20246;-66
2022/02/08 06:27:28;;;;;;;5.43;2.70;;;5.00;99.90;;;5.81;100.00;-19924.59;5093159;28;20242;-66
2022/02/08 06:29:58;;;;;;;7.77;2.87;;;4.90;99.90;;;5.81;100.00;-19924.78;5092647;28;20235;-66
2022/02/08 06:32:27;;;;;;;7.80;2.97;;;5.00;99.90;;;5.91;100.00;-19928.22;5092026;28;20765;-66
2022/02/08 06:34:57;;;;;;;5.57;3.50;;;5.00;99.90;;;5.89;100.00;-19927.53;5092143;28;20250;-65
2022/02/08 06:37:29;;;;;;;7.40;3.50;;;5.00;99.90;;;5.90;100.00;-19927.69;5091220;28;20253;-66
2022/02/08 06:39:57;;;;;;;5.33;2.60;;;5.00;99.90;;;5.84;100.00;-19925.81;5096520;28;20287;-65
2022/02/08 06:42:27;;;;;;;7.43;3.50;;;4.90;99.90;;;5.92;100.00;-19928.53;5112484;28;20229;-66
2022/02/08 06:44:55;;;;;;;9.20;3.10;;;4.90;99.90;;;5.89;100.00;-19927.34;5113194;28;20199;-72
2022/02/08 06:47:23;;;;;;;7.73;3.27;;;5.00;99.90;;;5.88;100.00;-19927.19;5112701;28;20254;-73
2022/02/08 06:49:53;;;;;;;6.80;3.13;;;5.00;99.90;;;5.95;100.00;-19929.41;5105700;28;20284;-74
2022/02/08 06:52:21;;;;;;;5.87;3.10;;;5.00;99.90;;;5.94;100.00;-19929.06;5091901;28;20222;-68
2022/02/08 06:54:49;;;;;;;7.33;2.93;;;5.00;99.90;;;5.96;100.00;-19929.91;5091751;28;20259;-62
2022/02/08 06:57:18;;;;;;;8.67;3.10;;;5.00;99.90;;;5.80;100.00;-19924.44;5091934;28;20298;-63
2022/02/08 06:59:52;;;;;;;8.60;2.80;;;4.90;99.90;;;5.78;100.00;-19923.75;5091315;28;20711;-63
2022/02/08 07:02:20;;;;;;;8.63;2.80;;;5.00;99.90;;;6.03;100.00;-19932.31;5091603;28;20235;-62
2022/02/08 07:04:48;;;;;;;6.50;2.73;;;5.00;99.90;;;5.99;100.00;-19930.75;5091687;28;20319;-62
2022/02/08 07:07:16;;;;;;;6.67;2.77;;;5.00;99.90;;;6.10;100.00;-19934.69;5091383;28;20599;-64
2022/02/08 07:09:45;;;;;;;6.37;2.47;;;5.10;99.90;;;6.04;100.00;-19932.47;5091509;28;20257;-63
2022/02/08 07:12:14;;;;;;;12.13;3.60;;;5.20;99.90;;;6.11;100.00;-19934.88;5091958;28;20208;-63
2022/02/08 07:14:44;;;;;;;8.00;2.90;;;5.20;99.90;;;6.22;100.00;-19938.47;5091709;28;20338;-63
2022/02/08 07:17:13;;;;;;;9.33;2.60;;;5.20;99.90;;;6.09;100.00;-19934.34;5091785;28;20277;-64
2022/02/08 07:19:41;;;;;;;9.50;4.03;;;5.20;99.90;;;6.03;100.00;-19932.31;5091970;28;20318;-62
2022/02/08 07:22:09;;;;;;;7.33;2.70;;;5.20;99.90;;;6.16;100.00;-19936.56;5091683;28;20679;-63
2022/02/08 07:24:37;;;;;;;6.33;2.73;;;5.20;99.90;;;6.28;100.00;-19940.50;5091924;28;20207;-63
2022/02/08 07:27:06;;;;;;;8.47;3.90;;;5.20;99.90;;;6.14;100.00;-19935.88;5092532;28;20255;-63
2022/02/08 07:29:38;;;;;;;8.40;3.30;;;5.20;99.90;;;6.16;100.00;-19936.56;5091812;28;20226;-64
2022/02/08 07:32:07;;;;;;;7.13;4.10;;;5.30;99.90;;;6.27;100.00;-19940.16;5090283;28;20655;-63
2022/02/08 07:34:42;;;;;;;8.57;3.33;;;5.30;99.90;;;6.21;100.00;-19938.13;5091470;28;20224;-62
2022/02/08 07:37:16;;;;;;;5.07;2.20;;;5.30;99.90;;;6.07;100.00;-19933.66;5095726;28;20687;-62
2022/02/08 07:39:47;;;;;;;8.07;2.87;;;5.30;99.90;;;5.99;100.00;-19930.75;5091023;28;20306;-62
2022/02/08 07:42:16;;;;;;;8.70;2.90;;;5.20;99.90;;;5.88;100.00;-19927.00;5091729;28;20303;-66
2022/02/08 07:44:45;;;;;;;5.57;3.63;;;5.10;99.90;;;5.84;100.00;-19925.81;5091183;28;20223;-66
2022/02/08 07:47:14;;;;;;;4.40;2.40;;;5.10;99.90;;;5.83;100.00;-19925.47;5091169;28;20278;-62
2022/02/08 07:49:44;;;;;;;4.53;2.20;;;5.10;99.90;;;5.88;100.00;-19927.19;5090476;28;20325;-63
2022/02/08 07:52:12;;;;;;;6.33;2.40;;;5.10;99.90;;;6.02;100.00;-19931.97;5089909;28;20246;-59
2022/02/08 07:54:40;;;;;;;6.93;2.33;;;5.00;99.90;;;6.30;100.00;-19941.38;5090503;28;20290;-58
2022/02/08 07:57:08;;;;;;;3.10;1.90;;;5.20;99.90;;;6.18;100.00;-19937.25;5090778;28;20242;-56
2022/02/08 07:59:36;;;;;;;8.00;2.63;;;5.20;99.90;;;6.15;100.00;-19936.41;5090154;28;20280;-57
2022/02/08 08:02:05;;;;;;;6.77;2.27;;;5.20;99.90;;;6.18;100.00;-19937.25;5090246;28;20262;-56
2022/02/08 08:04:33;;;;;;;6.40;2.77;;;5.30;99.90;;;6.25;100.00;-19939.47;5090536;28;20259;-56
2022/02/08 08:07:03;;;;;;;7.57;3.03;;;5.30;99.90;;;6.32;100.00;-19942.03;5090306;28;20222;-57
2022/02/08 08:09:31;;;;;;;4.90;2.47;;;5.30;99.90;;;6.44;100.00;-19945.97;5090313;28;20246;-59
2022/02/08 08:12:01;;;;;;;4.80;2.60;;;5.40;99.90;;;6.45;100.00;-19946.50;5090783;28;20287;-59
2022/02/08 08:14:31;;;;;;;5.53;2.93;;;5.40;99.90;;;6.38;100.00;-19944.09;5089893;28;20238;-62
2022/02/08 08:17:14;;;;;;;4.57;2.80;;;5.50;99.90;;;6.54;100.00;-19949.56;5090237;28;20238;-62
2022/02/08 08:19:42;;;;;;;7.30;2.70;;;5.50;99.90;;;6.51;100.00;-19948.38;5089974;28;20311;-62
2022/02/08 08:22:11;;;;;;;5.90;2.50;;;5.60;99.90;;;6.35;100.00;-19942.91;5089840;28;20756;-61
2022/02/08 08:24:40;;;;;;;4.57;2.53;;;5.50;99.90;;;6.66;100.00;-19953.66;5090011;28;20238;-61
2022/02/08 08:27:08;;;;;;;10.53;2.90;;;5.60;99.90;;;6.75;100.00;-19956.56;5090740;28;20574;-60
2022/02/08 08:29:36;;;;;;;4.97;1.90;;;5.70;99.90;;;6.71;100.00;-19955.38;5089326;28;20224;-59
2022/02/08 08:32:06;;;;;;;9.17;2.60;;;5.70;99.90;;;6.79;100.00;-19958.13;5089775;28;20232;-63
2022/02/08 08:34:37;;;;;;;5.07;2.00;;;5.80;99.90;;;6.82;100.00;-19959.13;5089668;28;20243;-63
2022/02/08 08:37:06;;;;;;;3.17;2.20;;;5.90;99.90;;;6.92;100.00;-19962.38;5090029;28;20314;-63
2022/02/08 08:39:40;;;;;;;5.33;2.30;;;5.90;99.90;;;7.02;100.00;-19965.78;5094042;28;20738;-66
2022/02/08 08:42:21;;;;;;;6.77;2.20;;;6.00;99.90;;;7.07;100.00;-19967.50;5094426;28;20246;-67
2022/02/08 08:48:25;;;;;;;6.43;2.50;;;6.00;99.90;;;7.19;100.00;-19971.59;5094144;28;20215;-67
2022/02/08 08:50:56;;;;;;;4.40;2.20;;;6.10;99.90;;;7.13;100.00;-19969.72;5093687;28;20255;-61
2022/02/08 08:53:26;;;;;;;6.47;2.40;;;6.20;99.90;;;7.05;100.00;-19966.81;5093719;28;20223;-63
2022/02/08 08:55:56;;;;;;;5.40;2.23;;;6.10;99.90;;;7.26;100.00;-19974.19;5093969;28;20657;-61
2022/02/08 08:58:24;;;;;;;6.53;2.93;;;6.20;99.90;;;7.26;100.00;-19974.19;5093136;28;20323;-61
2022/02/08 09:00:52;;;;;;;4.40;2.33;;;6.30;99.90;;;7.35;100.00;-19977.06;5093400;28;20707;-61
2022/02/08 09:03:21;;;;;;;4.50;2.20;;;6.30;99.90;;;7.27;100.00;-19974.34;5094024;28;20283;-61
2022/02/08 09:05:49;;;;;;;4.37;2.77;;;6.30;99.90;;;7.53;100.00;-19983.22;5093676;28;20686;-62
2022/02/08 09:08:17;;;;;;;7.57;3.20;;;6.40;99.90;;;7.65;100.00;-19987.34;5093130;28;20427;-63
2022/02/08 09:10:58;;;;;;;6.67;1.93;;;6.50;99.90;;;7.60;100.00;-19985.44;5093378;28;20597;-62
2022/02/08 09:13:33;;;;;;;5.60;2.50;;;6.50;99.90;;;7.54;100.00;-19983.56;5093102;28;20223;-62
2022/02/08 09:16:08;;;;;;;6.47;2.50;;;6.50;99.90;;;7.52;100.00;-19982.72;5093288;28;20268;-62
2022/02/08 09:18:59;;;;;;;4.37;1.90;;;6.50;99.90;;;7.62;100.00;-19986.31;5093278;28;20237;-62
2022/02/08 09:21:47;;;;;;;2.07;1.60;;;6.60;99.90;;;7.67;100.00;-19988.00;5092777;28;20302;-62
2022/02/08 09:24:47;;;;;;;3.17;1.63;;;6.60;99.90;;;7.76;100.00;-19991.09;5093705;28;20272;-62
2022/02/08 09:30:13;;;;;;;4.93;1.77;;;6.70;99.90;;;7.80;100.00;-19992.47;5062856;28;20225;-62
2022/02/08 09:32:47;;;;;;;3.63;1.77;;;6.70;99.90;;;7.80;100.00;-19992.28;5073007;28;20252;-61
2022/02/08 09:35:17;;;;;;;3.90;1.60;;;6.80;99.90;;;7.78;100.00;-19991.78;5072520;28;20672;-60
2022/02/08 09:37:47;;;;;;;4.03;1.60;;;6.80;99.90;;;7.77;100.00;-19991.25;5085265;28;20319;-60
2022/02/08 09:40:19;;;;;;;4.07;1.90;;;6.80;99.90;;;7.71;100.00;-19989.22;5092784;28;20243;-59
2022/02/08 09:42:48;;;;;;;4.60;2.00;;;6.70;99.90;;;7.83;100.00;-19993.31;5092641;28;20234;-60
2022/02/08 09:45:19;;;;;;;5.17;1.77;;;6.80;99.90;;;7.56;100.00;-19984.25;5092887;28;20200;-60
2022/02/08 09:47:53;;;;;;;2.47;2.03;;;6.70;99.90;;;7.74;100.00;-19990.41;5092815;28;20269;-64
2022/02/08 09:50:26;;;;;;;3.43;1.97;;;6.80;99.90;;;7.83;100.00;-19993.31;5091043;28;20319;-63
2022/02/08 09:52:58;;;;;;;4.20;2.23;;;6.70;99.90;;;7.61;100.00;-19985.97;5092611;28;20651;-68
2022/02/08 09:55:30;;;;;;;4.37;1.97;;;6.70;99.90;;;7.43;100.00;-19979.97;5092653;28;20307;-69
2022/02/08 09:57:58;;;;;;;5.20;1.90;;;6.60;99.90;;;7.64;100.00;-19987.00;5092876;28;20226;-69
2022/02/08 10:00:28;;;;;;;6.17;2.37;;;6.60;99.90;;;7.68;100.00;-19988.19;5092302;28;20302;-63
2022/02/08 10:03:06;;;;;;;5.87;2.20;;;6.70;99.90;;;7.60;100.00;-19985.44;5093409;28;20224;-62
2022/02/08 10:05:43;;;;;;;2.40;1.90;;;6.60;99.90;;;7.75;100.00;-19990.75;5091956;28;20558;-60
2022/02/08 10:08:12;;;;;;;4.33;2.50;;;6.70;99.90;;;8.05;100.00;-20000.84;5092334;28;20227;-60
2022/02/08 10:10:42;;;;;;;4.50;2.00;;;6.80;99.90;;;7.93;100.00;-19996.91;5092453;28;20306;-62
2022/02/08 10:13:34;;;;;;;2.87;1.70;;;6.90;99.90;;;7.99;100.00;-19998.78;5092544;28;20228;-65
2022/02/08 10:21:48;;;;;;;2.83;1.80;;;7.20;99.90;;;8.42;100.00;-20013.66;5066475;28;20246;-67
2022/02/08 10:24:18;;;;;;;3.00;1.87;;;7.30;99.90;;;8.47;100.00;-20015.34;5094954;28;20283;-72
2022/02/08 10:26:59;;;;;;;4.67;2.20;;;7.30;99.90;;;8.61;100.00;-20020.13;5113385;28;20243;-68
2022/02/08 10:29:38;;;;;;;3.03;1.83;;;7.40;99.90;;;8.86;100.00;-20028.50;5117271;28;20219;-72
2022/02/08 10:37:34;;;;;;;3.90;2.03;;;7.60;99.90;;;8.99;100.00;-20032.97;5114853;28;20709;-64
2022/02/08 10:38:04;;;;;;;4.03;2.17;;;7.70;99.90;;;8.60;100.00;-20019.63;5098925;28;20306;-64
2022/02/08 10:40:36;;;;;;;3.20;1.60;;;7.60;99.90;;;8.56;100.00;-20018.25;5092562;28;20219;-66
2022/02/08 10:43:07;;;;;;;5.53;2.20;;;7.50;99.90;;;8.20;100.00;-20006.13;5094264;28;20330;-71
2022/02/08 10:45:38;;;;;;;2.40;2.17;;;7.40;99.90;;;8.49;100.00;-20015.88;5094665;28;20221;-72
2022/02/08 10:48:11;;;;;;;4.40;2.70;;;7.40;99.90;;;8.49;100.00;-20015.88;5094951;28;20711;-64
2022/02/08 10:50:46;;;;;;;3.80;2.03;;;7.40;99.90;;;8.50;100.00;-20016.22;5092365;28;20302;-64
2022/02/08 10:53:16;;;;;;;5.17;2.40;;;7.40;99.90;;;8.68;100.00;-20022.34;5092625;28;20257;-67
2022/02/08 10:55:50;;;;;;;3.40;2.30;;;7.50;99.90;;;8.98;100.00;-20032.44;5092796;28;20543;-67
2022/02/08 10:58:26;;;;;;;4.10;2.10;;;7.70;99.90;;;9.18;100.00;-20039.28;5092845;28;20234;-65
2022/02/08 11:01:02;;;;;;;2.50;1.90;;;7.90;99.90;;;9.49;100.00;-20049.88;5093075;28;20266;-65
2022/02/08 11:03:40;;;;;;;3.83;1.90;;;8.10;99.90;;;9.53;100.00;-20051.41;5092619;28;20691;-72
2022/02/08 11:06:25;;;;;;;3.37;1.90;;;8.20;99.90;;;9.39;100.00;-20046.63;5098543;28;20223;-75
2022/02/08 11:09:14;;;;;;;2.80;1.70;;;8.30;99.90;;;9.56;100.00;-20052.44;5099576;28;20268;-76
2022/02/08 11:12:15;;;;;;;2.87;2.03;;;8.30;99.90;;;9.86;100.00;-20062.69;5094895;28;20224;-73
2022/02/08 11:15:10;;;;;;;4.67;1.90;;;8.40;99.90;;;10.29;100.00;-20077.19;5079688;28;20221;-74
2022/02/08 11:18:05;;;;;;;4.27;2.03;;;8.80;99.90;;;10.36;100.00;-20079.41;5083539;28;20311;-74
2022/02/08 11:20:42;;;;;;;3.97;1.90;;;8.80;99.90;;;10.00;100.00;-20067.28;5099785;28;20239;-75
2022/02/08 11:23:24;;;;;;;4.00;1.60;;;8.70;99.90;;;9.94;100.00;-20065.06;5084582;28;20216;-76
2022/02/08 11:25:54;;;;;;;3.80;1.93;;;8.70;99.90;;;9.85;100.00;-20062.34;5088562;28;20254;-73
2022/02/08 11:28:29;;;;;;;2.33;1.80;;;8.70;99.90;;;9.65;100.00;-20055.50;5088448;28;20225;-74
2022/02/08 11:31:11;;;;;;;3.97;1.90;;;8.50;99.90;;;9.60;100.00;-20053.78;5089696;28;20235;-73
2022/02/08 11:40:06;;;;;;;2.63;2.10;;;8.30;99.90;;;9.48;100.00;-20049.53;5095410;28;20272;-74
2022/02/08 11:48:44;;;;;;;2.70;2.40;;;8.30;99.90;;;9.58;100.00;-20052.94;5095375;28;20219;-75
2022/02/08 11:54:24;;;;;;;3.90;2.53;;;8.40;99.90;;;9.61;100.00;-20054.13;5084539;28;20291;-74
2022/02/08 11:59:55;;;;;;;3.53;3.23;;;8.30;99.90;;;9.34;100.00;-20044.91;5074660;28;20711;-73
2022/02/08 12:05:22;;;;;;;2.73;2.17;;;8.30;99.90;;;9.70;100.00;-20057.03;5093265;28;20256;-75
2022/02/08 12:07:56;;;;;;;2.53;2.33;;;8.40;99.90;;;9.66;100.00;-20055.66;5094680;28;20265;-73
2022/02/08 12:10:30;;;;;;;5.47;2.47;;;8.50;99.90;;;9.71;100.00;-20057.56;5094160;28;20257;-75
2022/02/08 12:33:08;;;;;;;3.03;2.07;;;8.70;99.90;;;9.91;100.00;-20064.03;5091012;28;20215;-71
2022/02/08 12:35:53;;;;;;;8.73;2.40;;;8.70;99.90;;;9.76;100.00;-20059.25;5095731;28;20231;-83
2022/02/08 12:58:27;;;;;;;3.23;1.60;;;8.80;99.90;;;9.72;100.00;-20057.72;5091109;28;20262;-72
2022/02/08 13:01:30;;;;;;;6.00;3.30;;;8.80;99.90;;;9.71;100.00;-20057.38;5091610;28;20236;-70
2022/02/08 13:04:15;;;;;;;2.20;1.60;;;8.70;99.90;;;9.71;100.00;-20057.56;5091335;28;20273;-68
2022/02/08 13:16:55;;;;;;;2.33;1.70;;;8.60;99.90;;;9.53;100.00;-20051.22;5091352;28;20196;-67